Time;durP1;ratioP1;P1;durP2;ratioP2;P2;SDS_P1;SDS_P2;PMS_P1;PMS_P2;Temp;Humidity;BMP_temperature;BMP_pressure;BME280_temperature;BME280_humidity;BME280_pressure;Samples;Min_cycle;Max_cycle;Signal;HPM_P1;HPM_P2
2022/04/21 00:01:04;;;;;;;15.57;6.97;;;10.70;99.90;;;;;;5035536;28;20179;-62
2022/04/21 00:03:30;;;;;;;14.10;5.80;;;10.70;99.90;;;;;;5052133;28;20025;-66
2022/04/21 00:05:55;;;;;;;12.90;6.10;;;10.70;99.90;;;;;;5052783;28;20036;-66
2022/04/21 00:08:21;;;;;;;14.65;6.95;;;10.60;99.90;;;;;;5032457;28;20034;-64
2022/04/21 00:10:46;;;;;;;13.65;6.80;;;10.60;99.90;;;;;;5036553;28;20021;-65
2022/04/21 00:13:12;;;;;;;13.02;6.30;;;10.60;99.90;;;;;;5051493;28;20099;-63
2022/04/21 00:15:38;;;;;;;14.00;6.72;;;10.60;99.90;;;;;;5043912;28;20083;-63
2022/04/21 00:18:04;;;;;;;12.48;6.18;;;10.60;99.90;;;;;;5051318;28;20193;-63
2022/04/21 00:20:30;;;;;;;13.68;6.53;;;10.60;99.90;;;;;;5050865;28;20024;-63
2022/04/21 00:25:39;;;;;;;15.00;6.55;;;10.50;99.90;;;;;;5043229;28;20036;-63
2022/04/21 00:28:06;;;;;;;16.30;7.15;;;10.50;99.90;;;;;;5049135;28;20049;-63
2022/04/21 00:30:32;;;;;;;14.32;6.35;;;10.50;99.90;;;;;;5051172;28;20511;-63
2022/04/21 00:32:57;;;;;;;13.27;5.97;;;10.50;99.90;;;;;;5050667;28;20029;-63
2022/04/21 00:35:23;;;;;;;14.52;6.93;;;10.50;99.90;;;;;;5051197;28;20032;-63
2022/04/21 00:37:51;;;;;;;11.65;5.82;;;10.50;99.90;;;;;;5049958;28;20040;-64
2022/04/21 00:40:19;;;;;;;12.27;6.10;;;10.50;99.90;;;;;;5045339;28;20029;-63
2022/04/21 00:42:45;;;;;;;18.05;6.03;;;10.40;99.90;;;;;;5051058;28;20043;-63
2022/04/21 00:45:14;;;;;;;14.75;6.32;;;10.40;99.90;;;;;;5050666;28;20074;-63
2022/04/21 00:47:43;;;;;;;13.40;5.72;;;10.40;99.90;;;;;;5050701;28;20065;-63
2022/04/21 00:50:18;;;;;;;13.50;6.78;;;10.40;99.90;;;;;;5032817;28;20047;-63
2022/04/21 00:52:45;;;;;;;14.93;5.88;;;10.30;99.90;;;;;;5037564;28;20032;-63
2022/04/21 00:55:12;;;;;;;13.05;5.55;;;10.30;99.90;;;;;;5050959;28;20012;-62
2022/04/21 00:57:40;;;;;;;14.68;5.97;;;10.30;99.90;;;;;;5049928;28;20024;-62
2022/04/21 01:00:06;;;;;;;14.13;5.90;;;10.20;99.90;;;;;;5048590;28;20052;-63
2022/04/21 01:05:29;;;;;;;14.80;5.65;;;10.10;99.90;;;;;;5032091;28;20076;-64
2022/04/21 01:07:56;;;;;;;15.02;6.40;;;10.10;99.90;;;;;;5051078;28;20475;-63
2022/04/21 01:10:22;;;;;;;12.05;5.40;;;10.00;99.90;;;;;;5051564;28;20056;-62
2022/04/21 01:12:49;;;;;;;13.57;5.93;;;10.00;99.90;;;;;;5054337;28;20033;-63
2022/04/21 01:15:14;;;;;;;13.85;6.65;;;10.00;99.90;;;;;;5042579;28;20465;-62
2022/04/21 01:17:40;;;;;;;14.18;6.75;;;9.90;99.90;;;;;;5050628;28;20029;-63
2022/04/21 01:20:09;;;;;;;15.80;6.30;;;9.90;99.90;;;;;;5060880;28;20016;-63
2022/04/21 01:22:34;;;;;;;15.00;6.22;;;9.90;99.90;;;;;;5050975;28;20119;-62
2022/04/21 01:25:00;;;;;;;16.73;5.95;;;9.90;99.90;;;;;;5043872;28;20027;-63
2022/04/21 01:27:29;;;;;;;16.48;6.07;;;9.80;99.90;;;;;;5043957;28;20085;-63
2022/04/21 01:29:55;;;;;;;13.40;6.00;;;9.80;99.90;;;;;;5042084;28;20025;-63
2022/04/21 01:32:20;;;;;;;14.52;6.30;;;9.80;99.90;;;;;;5036112;28;20029;-64
2022/04/21 01:34:46;;;;;;;18.42;7.07;;;9.80;99.90;;;;;;5043620;28;20456;-62
2022/04/21 01:42:40;;;;;;;11.77;5.95;;;9.70;99.90;;;;;;5054031;28;20036;-62
2022/04/21 01:45:07;;;;;;;15.27;6.00;;;9.70;99.90;;;;;;5053672;28;20120;-63
2022/04/21 01:47:32;;;;;;;14.05;6.18;;;9.70;99.90;;;;;;5054376;28;20450;-62
2022/04/21 01:49:58;;;;;;;17.25;6.82;;;9.60;99.90;;;;;;5051472;28;20037;-63
2022/04/21 01:52:23;;;;;;;16.73;7.15;;;9.60;99.90;;;;;;5054101;28;20029;-63
2022/04/21 01:54:50;;;;;;;18.88;6.82;;;9.50;99.90;;;;;;5054177;28;20032;-63
2022/04/21 01:57:18;;;;;;;16.30;6.35;;;9.60;99.90;;;;;;5053530;28;20025;-63
2022/04/21 01:59:44;;;;;;;16.60;6.47;;;9.50;99.90;;;;;;5050063;28;20033;-63
2022/04/21 02:02:09;;;;;;;14.20;6.80;;;9.50;99.90;;;;;;5052416;28;20044;-63
2022/04/21 02:04:35;;;;;;;13.52;6.15;;;9.50;99.90;;;;;;5053572;28;20140;-63
2022/04/21 02:07:03;;;;;;;14.27;6.80;;;9.50;99.90;;;;;;5044736;28;20021;-63
2022/04/21 02:09:29;;;;;;;15.98;6.95;;;9.50;99.90;;;;;;5046684;28;20028;-63
2022/04/21 02:11:54;;;;;;;13.30;5.97;;;9.50;99.90;;;;;;5046926;28;20609;-63
2022/04/21 02:14:20;;;;;;;16.05;6.75;;;9.50;99.90;;;;;;5032852;28;20477;-63
2022/04/21 02:16:46;;;;;;;13.23;6.05;;;9.50;99.90;;;;;;5034319;28;20052;-63
2022/04/21 02:19:11;;;;;;;13.57;6.90;;;9.50;99.90;;;;;;5050451;28;20047;-63
2022/04/21 02:21:37;;;;;;;16.40;6.82;;;9.50;99.90;;;;;;5053606;28;20025;-63
2022/04/21 02:24:03;;;;;;;17.50;7.53;;;9.50;99.90;;;;;;5053098;28;20021;-63
2022/04/21 02:26:28;;;;;;;13.43;6.15;;;9.40;99.90;;;;;;5046850;28;20102;-63
2022/04/21 02:28:54;;;;;;;16.75;6.18;;;9.40;99.90;;;;;;5043156;28;20025;-64
2022/04/21 02:31:19;;;;;;;15.63;6.80;;;9.40;99.90;;;;;;5052754;28;20479;-63
2022/04/21 02:33:45;;;;;;;16.20;6.63;;;9.40;99.90;;;;;;5033884;28;20025;-63
2022/04/21 02:36:10;;;;;;;14.48;6.18;;;9.40;99.90;;;;;;5034444;28;20037;-63
2022/04/21 02:38:36;;;;;;;12.75;6.25;;;9.40;99.90;;;;;;5040463;28;20045;-63
2022/04/21 02:41:01;;;;;;;16.13;6.85;;;9.30;99.90;;;;;;5052590;28;20403;-63
2022/04/21 02:43:27;;;;;;;16.65;6.72;;;9.30;99.90;;;;;;5053149;28;20453;-63
2022/04/21 02:45:53;;;;;;;16.45;6.88;;;9.30;99.90;;;;;;5054302;28;20025;-63
2022/04/21 02:48:18;;;;;;;18.75;6.97;;;9.30;99.90;;;;;;5053217;28;20025;-63
2022/04/21 02:50:44;;;;;;;14.77;6.38;;;9.30;99.90;;;;;;5053405;28;20516;-63
2022/04/21 02:53:11;;;;;;;13.40;6.50;;;9.20;99.90;;;;;;5052790;28;20393;-63
2022/04/21 02:58:22;;;;;;;14.35;6.30;;;9.20;99.90;;;;;;5041070;28;20087;-64
2022/04/21 03:00:48;;;;;;;15.35;7.00;;;9.20;99.90;;;;;;5053779;28;20024;-63
2022/04/21 03:03:14;;;;;;;16.38;7.18;;;9.20;99.90;;;;;;5053755;28;20021;-63
2022/04/21 03:05:39;;;;;;;13.68;6.32;;;9.20;99.90;;;;;;5053499;28;20025;-63
2022/04/21 03:08:05;;;;;;;12.90;6.13;;;9.20;99.90;;;;;;5053525;28;20036;-63
2022/04/21 03:10:32;;;;;;;14.13;6.55;;;9.10;99.90;;;;;;5053727;28;20025;-63
2022/04/21 03:12:58;;;;;;;16.88;7.18;;;9.10;99.90;;;;;;5053580;28;20115;-63
2022/04/21 03:15:24;;;;;;;13.95;6.53;;;9.10;99.90;;;;;;5054223;28;20107;-63
2022/04/21 03:17:50;;;;;;;14.18;6.78;;;9.10;99.90;;;;;;5050673;28;20033;-63
2022/04/21 03:25:44;;;;;;;13.70;6.75;;;9.00;99.90;;;;;;5053032;28;20036;-63
2022/04/21 03:28:10;;;;;;;17.27;7.10;;;9.00;99.90;;;;;;5052596;28;20045;-63
2022/04/21 03:30:36;;;;;;;16.45;7.05;;;9.00;99.90;;;;;;5053036;28;20048;-63
2022/04/21 03:33:01;;;;;;;14.82;7.10;;;9.00;99.90;;;;;;5050980;28;20060;-64
2022/04/21 03:35:27;;;;;;;17.20;6.95;;;8.90;99.90;;;;;;5050308;28;20094;-63
2022/04/21 03:37:53;;;;;;;15.23;6.95;;;8.90;99.90;;;;;;5046331;28;20028;-63
2022/04/21 03:40:18;;;;;;;16.20;6.70;;;8.90;99.90;;;;;;5052499;28;20411;-63
2022/04/21 03:42:44;;;;;;;14.70;7.05;;;8.90;99.90;;;;;;5052560;28;20023;-63
2022/04/21 03:45:09;;;;;;;15.00;6.07;;;8.90;99.90;;;;;;5052713;28;20032;-63
2022/04/21 03:47:35;;;;;;;17.98;7.43;;;8.90;99.90;;;;;;5043484;28;20048;-63
2022/04/21 03:50:00;;;;;;;18.25;7.63;;;8.80;99.90;;;;;;5043860;28;20044;-63
2022/04/21 03:52:26;;;;;;;16.27;7.88;;;8.80;99.90;;;;;;5050907;28;20036;-64
2022/04/21 03:54:51;;;;;;;15.05;7.30;;;8.80;99.90;;;;;;5047109;28;20021;-63
2022/04/21 03:57:17;;;;;;;16.75;8.55;;;8.80;99.90;;;;;;5052334;28;20373;-63
2022/04/21 03:59:42;;;;;;;18.27;8.02;;;8.80;99.90;;;;;;5042529;28;20068;-63
2022/04/21 04:02:08;;;;;;;15.55;6.97;;;8.80;99.90;;;;;;5032582;28;20047;-63
2022/04/21 04:04:35;;;;;;;14.90;6.93;;;8.80;99.90;;;;;;5047709;28;20457;-63
2022/04/21 04:12:32;;;;;;;17.27;7.68;;;8.70;99.90;;;;;;5052160;28;20036;-63
2022/04/21 04:14:59;;;;;;;20.13;7.60;;;8.70;99.90;;;;;;5052481;28;20052;-64
2022/04/21 04:17:24;;;;;;;16.95;7.38;;;8.60;99.90;;;;;;5052193;28;20437;-63
2022/04/21 04:19:50;;;;;;;19.02;7.97;;;8.60;99.90;;;;;;5052342;28;20042;-63
2022/04/21 04:22:16;;;;;;;16.83;7.72;;;8.60;99.90;;;;;;5059388;28;20030;-63
2022/04/21 04:24:44;;;;;;;18.08;7.07;;;8.50;99.90;;;;;;5071932;28;20039;-63
2022/04/21 04:27:09;;;;;;;19.25;8.45;;;8.50;99.90;;;;;;5070742;28;20056;-63
2022/04/21 04:29:35;;;;;;;19.88;8.30;;;8.40;99.90;;;;;;5070912;28;20218;-63
2022/04/21 04:32:01;;;;;;;15.75;7.63;;;8.50;99.90;;;;;;5071791;28;20097;-63
2022/04/21 04:34:27;;;;;;;15.45;7.38;;;8.50;99.90;;;;;;5071934;28;20023;-63
2022/04/21 04:36:52;;;;;;;17.88;7.95;;;8.50;99.90;;;;;;5071746;28;20435;-63
2022/04/21 04:39:18;;;;;;;16.73;7.68;;;8.50;99.90;;;;;;5070911;28;20044;-64
2022/04/21 04:44:29;;;;;;;19.77;8.05;;;8.50;99.90;;;;;;5071610;28;20051;-63
2022/04/21 04:46:55;;;;;;;17.08;8.27;;;8.50;99.90;;;;;;5071604;28;20052;-63
2022/04/21 04:49:21;;;;;;;17.17;7.47;;;8.50;99.90;;;;;;5057398;28;20021;-63
2022/04/21 04:51:47;;;;;;;18.52;8.05;;;8.50;99.90;;;;;;5059983;28;20419;-64
2022/04/21 04:54:14;;;;;;;17.77;8.23;;;8.60;99.90;;;;;;5058462;28;20021;-63
2022/04/21 04:56:42;;;;;;;15.18;7.65;;;8.60;99.90;;;;;;5058034;28;20025;-63
2022/04/21 04:59:07;;;;;;;19.30;8.38;;;8.60;99.90;;;;;;5067399;28;20102;-63
2022/04/21 05:01:41;;;;;;;18.40;7.68;;;8.70;99.90;;;;;;5059617;28;20412;-64
2022/04/21 05:04:17;;;;;;;19.80;8.02;;;8.70;99.90;;;;;;5059837;28;20395;-63
2022/04/21 05:06:54;;;;;;;16.88;7.65;;;8.70;99.90;;;;;;5045912;28;20090;-63
2022/04/21 05:09:21;;;;;;;16.15;7.20;;;8.70;99.90;;;;;;5054653;28;20044;-63
2022/04/21 05:11:51;;;;;;;19.77;7.88;;;8.80;99.90;;;;;;5055839;28;20067;-64
2022/04/21 05:14:17;;;;;;;17.42;6.97;;;8.80;99.90;;;;;;5054379;28;20024;-63
2022/04/21 05:16:43;;;;;;;16.05;7.43;;;8.90;99.90;;;;;;5054274;28;20308;-63
2022/04/21 05:19:16;;;;;;;16.17;7.25;;;8.90;99.90;;;;;;5054238;28;20048;-64
2022/04/21 05:21:43;;;;;;;13.88;6.90;;;9.00;99.90;;;;;;5053869;28;20404;-63
2022/04/21 05:24:10;;;;;;;14.23;5.90;;;9.00;99.90;;;;;;5047224;28;20112;-63
2022/04/21 05:26:40;;;;;;;13.75;7.10;;;9.10;99.90;;;;;;5045068;28;20469;-63
2022/04/21 05:32:03;;;;;;;14.10;6.60;;;9.20;99.90;;;;;;5047907;28;20157;-63
2022/04/21 05:34:30;;;;;;;14.07;7.05;;;9.30;99.90;;;;;;5045977;28;20164;-63
2022/04/21 05:36:58;;;;;;;17.48;6.70;;;9.40;99.90;;;;;;5035833;28;20043;-63
2022/04/21 05:39:24;;;;;;;13.32;6.32;;;9.40;99.90;;;;;;5040164;28;20041;-63
2022/04/21 05:41:52;;;;;;;13.52;6.55;;;9.50;99.90;;;;;;5053814;28;20021;-63
2022/04/21 05:44:18;;;;;;;12.88;6.38;;;9.60;99.90;;;;;;5052996;28;20422;-63
2022/04/21 05:46:45;;;;;;;13.77;5.93;;;9.60;99.90;;;;;;5053899;28;20025;-63
2022/04/21 05:49:11;;;;;;;14.02;6.30;;;9.70;99.90;;;;;;5039287;28;20112;-63
2022/04/21 05:51:38;;;;;;;15.55;6.07;;;9.80;99.90;;;;;;5037808;28;20107;-63
2022/04/21 05:54:07;;;;;;;14.00;6.28;;;9.90;99.90;;;;;;5054429;28;20025;-63
2022/04/21 05:56:33;;;;;;;14.60;6.53;;;10.00;99.90;;;;;;5045968;28;20370;-62
2022/04/21 05:58:59;;;;;;;15.07;6.85;;;10.00;99.90;;;;;;5039913;28;20044;-64
2022/04/21 06:01:26;;;;;;;13.68;6.53;;;10.10;99.90;;;;;;5053696;28;20057;-62
2022/04/21 06:03:52;;;;;;;15.82;6.78;;;10.20;99.90;;;;;;5054446;28;20467;-63
2022/04/21 06:06:18;;;;;;;15.32;6.40;;;10.30;99.90;;;;;;5054066;28;20128;-62
2022/04/21 06:08:45;;;;;;;17.77;7.03;;;10.40;99.90;;;;;;5053941;28;20024;-63
2022/04/21 06:11:13;;;;;;;14.68;7.50;;;10.50;99.90;;;;;;5053886;28;20024;-63
2022/04/21 06:13:40;;;;;;;13.32;5.75;;;10.60;99.90;;;;;;5053384;28;20044;-63
2022/04/21 06:16:06;;;;;;;14.25;6.15;;;10.80;99.90;;;;;;5052234;28;20426;-62
2022/04/21 06:18:32;;;;;;;15.48;6.82;;;10.90;99.90;;;;;;5054888;28;20043;-62
2022/04/21 06:20:58;;;;;;;13.05;6.22;;;11.00;99.90;;;;;;5055014;28;20028;-63
2022/04/21 06:23:23;;;;;;;13.95;6.22;;;11.20;99.90;;;;;;5054834;28;20518;-63
2022/04/21 06:25:53;;;;;;;14.80;5.97;;;11.30;99.90;;;;;;5054835;28;20423;-62
2022/04/21 06:28:19;;;;;;;11.88;5.15;;;11.50;99.90;;;;;;5054736;28;20037;-62
2022/04/21 06:30:44;;;;;;;13.60;6.07;;;11.70;99.90;;;;;;5055056;28;20116;-62
2022/04/21 06:33:10;;;;;;;13.82;5.88;;;11.90;99.90;;;;;;5054693;28;20373;-63
2022/04/21 06:35:35;;;;;;;14.68;6.20;;;12.10;99.90;;;;;;5054972;28;20025;-63
2022/04/21 06:38:01;;;;;;;13.98;6.22;;;12.30;99.90;;;;;;5054108;28;20199;-63
2022/04/21 06:40:27;;;;;;;13.80;5.82;;;12.60;99.90;;;;;;5054655;28;20017;-63
2022/04/21 06:42:52;;;;;;;15.38;6.80;;;13.10;99.90;;;;;;5054713;28;20075;-63
2022/04/21 06:48:02;;;;;;;12.70;5.63;;;14.00;99.90;;;;;;5054459;28;20043;-62
2022/04/21 06:50:28;;;;;;;10.43;5.55;;;14.60;99.90;;;;;;5054588;28;20103;-63
2022/04/21 06:52:54;;;;;;;10.15;4.78;;;15.10;99.90;;;;;;5054181;28;20028;-63
2022/04/21 06:55:19;;;;;;;8.65;4.60;;;15.40;99.90;;;;;;5054315;28;20029;-62
2022/04/21 06:57:46;;;;;;;7.55;4.70;;;15.80;99.90;;;;;;5054094;28;20033;-64
2022/04/21 07:00:12;;;;;;;8.70;4.30;;;16.10;99.70;;;;;;5054302;28;20060;-64
2022/04/21 07:02:38;;;;;;;9.90;4.72;;;16.50;98.90;;;;;;5053872;28;20024;-62
2022/04/21 07:05:08;;;;;;;10.10;4.70;;;16.80;98.20;;;;;;5052495;28;20021;-62
2022/04/21 07:07:34;;;;;;;9.77;4.90;;;17.00;97.20;;;;;;5054032;28;20070;-63
2022/04/21 07:10:02;;;;;;;13.13;5.50;;;17.40;96.80;;;;;;5054284;28;20029;-63
2022/04/21 07:12:29;;;;;;;14.38;6.20;;;17.60;96.40;;;;;;5054018;28;20024;-63
2022/04/21 07:15:06;;;;;;;10.48;4.75;;;17.70;95.90;;;;;;5053896;28;20033;-63
2022/04/21 07:17:33;;;;;;;8.60;4.63;;;17.70;95.20;;;;;;5052737;28;20366;-63
2022/04/21 07:19:59;;;;;;;10.75;5.20;;;17.40;94.80;;;;;;5053474;28;20017;-63
2022/04/21 07:22:25;;;;;;;9.90;4.45;;;17.00;95.00;;;;;;5053935;28;20020;-62
2022/04/21 07:24:55;;;;;;;9.50;4.57;;;16.60;95.30;;;;;;5053698;28;20461;-63
2022/04/21 07:27:22;;;;;;;12.95;5.45;;;16.40;95.40;;;;;;5052790;28;20056;-63
2022/04/21 07:29:48;;;;;;;13.20;5.00;;;16.30;96.10;;;;;;5053618;28;20479;-63
2022/04/21 07:32:14;;;;;;;9.18;4.50;;;16.30;96.50;;;;;;5053797;28;20025;-63
2022/04/21 07:34:39;;;;;;;9.95;4.53;;;16.30;96.70;;;;;;5053545;28;20108;-62
2022/04/21 07:37:07;;;;;;;9.75;4.40;;;16.40;96.40;;;;;;5052586;28;20408;-62
2022/04/21 07:39:32;;;;;;;9.82;4.25;;;16.50;95.80;;;;;;5052877;28;20060;-63
2022/04/21 07:41:58;;;;;;;9.38;4.78;;;16.60;95.70;;;;;;5053618;28;20408;-63
2022/04/21 07:44:25;;;;;;;11.30;4.75;;;16.70;95.50;;;;;;5053381;28;20472;-63
2022/04/21 07:46:51;;;;;;;13.95;5.10;;;16.90;96.10;;;;;;5053197;28;20064;-63
2022/04/21 07:54:44;;;;;;;9.38;4.57;;;17.70;94.70;;;;;;5052803;28;20024;-63
2022/04/21 07:57:10;;;;;;;11.45;4.72;;;17.90;94.50;;;;;;5052756;28;20013;-63
2022/04/21 07:59:36;;;;;;;8.32;4.28;;;18.20;94.20;;;;;;5053096;28;20041;-63
2022/04/21 08:02:03;;;;;;;9.02;4.82;;;18.60;93.80;;;;;;5053353;28;20086;-63
2022/04/21 08:04:30;;;;;;;9.80;4.78;;;19.00;93.10;;;;;;5052736;28;20369;-63
2022/04/21 08:06:57;;;;;;;9.65;4.70;;;19.50;92.20;;;;;;5051966;28;20017;-63
2022/04/21 08:09:23;;;;;;;9.77;5.03;;;20.00;91.30;;;;;;5052991;28;20079;-63
2022/04/21 08:11:48;;;;;;;12.75;4.85;;;20.40;90.60;;;;;;5052704;28;20025;-63
2022/04/21 08:14:16;;;;;;;8.45;4.65;;;20.80;89.70;;;;;;5053052;28;20021;-63
2022/04/21 08:16:43;;;;;;;8.80;5.00;;;21.40;89.00;;;;;;5053023;28;20017;-63
2022/04/21 08:19:09;;;;;;;9.20;5.18;;;22.00;86.70;;;;;;5052731;28;20095;-63
2022/04/21 08:21:37;;;;;;;12.07;5.30;;;22.40;84.70;;;;;;5052400;28;20215;-63
2022/04/21 08:32:33;;;;;;;10.07;5.20;;;23.60;78.90;;;;;;5052431;28;20403;-63
2022/04/21 08:35:03;;;;;;;9.50;4.88;;;23.90;77.80;;;;;;5052559;28;20020;-63
2022/04/21 08:37:28;;;;;;;9.68;5.03;;;24.20;76.40;;;;;;5052324;28;20421;-63
2022/04/21 08:39:55;;;;;;;11.18;5.45;;;24.50;75.40;;;;;;5052473;28;20112;-63
2022/04/21 08:42:21;;;;;;;12.07;5.18;;;24.80;74.00;;;;;;5052464;28;20101;-63
2022/04/21 08:44:49;;;;;;;13.88;5.20;;;25.10;72.90;;;;;;5051312;28;20102;-63
2022/04/21 08:47:19;;;;;;;10.48;5.15;;;25.20;71.40;;;;;;5052185;28;20112;-63
2022/04/21 08:49:50;;;;;;;12.63;4.65;;;25.30;70.20;;;;;;5052612;28;20033;-63
2022/04/21 08:52:17;;;;;;;9.10;4.73;;;25.50;68.40;;;;;;5052375;28;20410;-63
2022/04/21 08:54:42;;;;;;;10.82;4.90;;;25.60;67.20;;;;;;5052073;28;20707;-63
2022/04/21 08:57:09;;;;;;;15.45;4.75;;;25.80;66.80;;;;;;5051820;28;20040;-64
2022/04/21 08:59:35;;;;;;;21.50;6.03;;;26.10;64.80;;;;;;5051847;28;20029;-63
2022/04/21 09:02:01;;;;;;;8.88;3.88;;;26.20;63.40;;;;;;5050963;28;20029;-63
2022/04/21 09:04:29;;;;;;;7.38;3.75;;;26.40;62.20;;;;;;5052096;28;20028;-63
2022/04/21 09:06:54;;;;;;;6.45;3.78;;;26.70;61.20;;;;;;5052471;28;20024;-63
2022/04/21 09:09:21;;;;;;;7.90;3.80;;;26.70;59.80;;;;;;5052094;28;20026;-63
2022/04/21 09:11:52;;;;;;;6.38;3.35;;;26.90;58.90;;;;;;5052393;28;20461;-63
2022/04/21 09:14:19;;;;;;;10.32;3.55;;;27.10;56.70;;;;;;5051649;28;20381;-64
2022/04/21 09:16:45;;;;;;;7.20;3.30;;;27.10;55.90;;;;;;5051980;28;20032;-63
2022/04/21 09:19:11;;;;;;;6.53;3.15;;;27.20;55.00;;;;;;5051685;28;20040;-63
2022/04/21 09:21:38;;;;;;;14.73;3.92;;;27.40;53.90;;;;;;5051516;28;20021;-64
2022/04/21 09:24:22;;;;;;;11.90;2.97;;;27.40;52.50;;;;;;5051708;28;20105;-64
2022/04/21 09:26:49;;;;;;;5.15;3.00;;;27.20;52.00;;;;;;5038795;28;20040;-64
2022/04/21 09:29:34;;;;;;;12.30;2.88;;;27.00;52.40;;;;;;5032345;28;20025;-63
2022/04/21 09:32:02;;;;;;;8.23;2.78;;;27.00;53.20;;;;;;5031627;28;20045;-63
2022/04/21 09:34:28;;;;;;;7.93;3.30;;;27.10;52.30;;;;;;5031754;28;20017;-63
2022/04/21 09:36:58;;;;;;;6.50;3.17;;;26.90;51.30;;;;;;5030934;28;20684;-63
2022/04/21 09:39:24;;;;;;;10.68;3.90;;;26.70;51.30;;;;;;5031574;28;20021;-63
2022/04/21 09:41:56;;;;;;;8.05;3.58;;;26.80;51.60;;;;;;5032063;28;20037;-63
2022/04/21 09:47:20;;;;;;;8.07;3.20;;;26.90;49.90;;;;;;5031647;28;20084;-63
2022/04/21 09:49:46;;;;;;;10.88;3.58;;;26.90;50.00;;;;;;5032597;28;20021;-63
2022/04/21 09:52:12;;;;;;;30.38;6.13;;;27.00;50.20;;;;;;5035315;28;20476;-64
2022/04/21 09:54:40;;;;;;;21.45;5.07;;;27.20;50.10;;;;;;5035217;28;20441;-62
2022/04/21 09:57:07;;;;;;;12.02;4.00;;;27.40;50.00;;;;;;5035089;28;20571;-63
2022/04/21 09:59:35;;;;;;;11.75;3.70;;;27.20;50.20;;;;;;5035021;28;20042;-63
2022/04/21 10:02:02;;;;;;;7.47;3.13;;;27.00;50.30;;;;;;5034920;28;20104;-63
2022/04/21 10:04:30;;;;;;;7.07;3.17;;;26.90;50.40;;;;;;5035117;28;20020;-63
2022/04/21 10:06:57;;;;;;;7.50;3.33;;;26.80;50.50;;;;;;5045821;28;20029;-63
2022/04/21 10:09:23;;;;;;;6.95;3.30;;;26.70;50.50;;;;;;5055258;28;20024;-62
2022/04/21 10:11:52;;;;;;;6.55;3.50;;;26.50;50.30;;;;;;5055643;28;20028;-62
2022/04/21 10:14:17;;;;;;;7.47;3.63;;;26.50;50.90;;;;;;5055045;28;20028;-62
2022/04/21 10:16:43;;;;;;;6.90;3.45;;;26.70;50.80;;;;;;5053513;28;20013;-63
2022/04/21 10:19:11;;;;;;;6.95;3.40;;;27.00;50.70;;;;;;5054875;28;20029;-64
2022/04/21 10:21:49;;;;;;;6.50;3.35;;;27.10;50.20;;;;;;5055022;28;20020;-64
2022/04/21 10:24:25;;;;;;;8.85;3.53;;;27.10;50.00;;;;;;5055258;28;20021;-64
2022/04/21 10:26:52;;;;;;;7.13;3.03;;;26.90;50.10;;;;;;5053337;28;20045;-64
2022/04/21 10:29:22;;;;;;;7.82;3.30;;;26.60;50.10;;;;;;5054451;28;20029;-64
2022/04/21 10:32:03;;;;;;;6.97;3.28;;;26.50;50.50;;;;;;5053333;28;20032;-64
2022/04/21 10:34:45;;;;;;;8.20;3.42;;;26.30;50.50;;;;;;5059970;28;20017;-64
2022/04/21 10:37:21;;;;;;;9.27;3.17;;;26.50;50.40;;;;;;5058464;28;20025;-64
2022/04/21 10:40:09;;;;;;;7.30;3.53;;;26.50;50.50;;;;;;5054295;28;20083;-66
2022/04/21 10:42:52;;;;;;;6.85;3.20;;;26.50;50.70;;;;;;5054781;28;20033;-65
2022/04/21 10:45:25;;;;;;;5.03;3.35;;;26.60;50.80;;;;;;5054444;28;20099;-62
2022/04/21 10:48:14;;;;;;;6.38;3.47;;;26.70;51.40;;;;;;5053276;28;20376;-62
2022/04/21 10:50:45;;;;;;;5.70;3.35;;;27.20;51.40;;;;;;5053831;28;20419;-61
2022/04/21 10:58:42;;;;;;;7.20;3.42;;;27.20;50.60;;;;;;5056841;28;20056;-62
2022/04/21 11:01:13;;;;;;;7.47;3.42;;;27.10;51.00;;;;;;5043576;28;20100;-62
2022/04/21 11:03:41;;;;;;;6.57;3.63;;;27.30;50.90;;;;;;5068014;28;20017;-63
2022/04/21 11:06:14;;;;;;;5.75;3.38;;;27.50;50.40;;;;;;5061046;28;20032;-62
2022/04/21 11:08:40;;;;;;;4.07;3.30;;;27.70;50.40;;;;;;5073982;28;20020;-62
2022/04/21 11:11:06;;;;;;;4.93;3.38;;;28.00;49.40;;;;;;5067204;28;20027;-63
2022/04/21 11:13:51;;;;;;;4.82;3.35;;;27.90;49.50;;;;;;5055671;28;20036;-64
2022/04/21 11:16:42;;;;;;;5.47;3.63;;;27.90;49.50;;;;;;5055761;28;20067;-65
2022/04/21 11:19:34;;;;;;;5.15;3.25;;;27.80;49.30;;;;;;5059575;28;20031;-63
2022/04/21 11:22:01;;;;;;;8.95;3.40;;;27.60;48.60;;;;;;5055139;28;20083;-64
2022/04/21 11:24:27;;;;;;;8.70;3.28;;;27.70;49.40;;;;;;5050508;28;20044;-63
2022/04/21 11:26:54;;;;;;;6.05;3.92;;;27.80;49.80;;;;;;5058171;28;20040;-63
2022/04/21 11:29:20;;;;;;;6.72;3.50;;;27.80;49.50;;;;;;5053161;28;20535;-63
2022/04/21 11:31:45;;;;;;;5.88;3.40;;;27.60;49.30;;;;;;5056211;28;20032;-63
2022/04/21 11:34:11;;;;;;;7.70;3.05;;;27.70;48.80;;;;;;5057569;28;20513;-63
2022/04/21 11:36:40;;;;;;;7.93;3.95;;;27.70;49.00;;;;;;5049879;28;20040;-63
2022/04/21 11:39:10;;;;;;;6.47;3.53;;;27.50;48.90;;;;;;5058503;28;20041;-63
2022/04/21 11:41:42;;;;;;;9.55;3.85;;;27.40;48.90;;;;;;5048649;28;20024;-64
2022/04/21 11:44:08;;;;;;;7.05;3.10;;;27.60;48.90;;;;;;5057997;28;20017;-63
2022/04/21 11:46:40;;;;;;;5.95;3.42;;;27.50;48.90;;;;;;5065522;28;20032;-63
2022/04/21 11:49:08;;;;;;;8.25;3.88;;;27.40;48.70;;;;;;5059052;28;20033;-63
2022/04/21 11:51:33;;;;;;;8.15;3.78;;;27.40;48.40;;;;;;5038152;28;20044;-63
2022/04/21 11:54:04;;;;;;;13.80;3.47;;;27.50;48.20;;;;;;5068768;28;20357;-63
2022/04/21 11:56:30;;;;;;;9.00;3.58;;;27.60;48.40;;;;;;5049005;28;20096;-62
2022/04/21 11:58:55;;;;;;;10.40;3.15;;;27.60;47.90;;;;;;5063917;28;20528;-62
2022/04/21 12:06:57;;;;;;;8.15;3.55;;;27.40;48.70;;;;;;5052431;28;20147;-62
2022/04/21 12:09:34;;;;;;;7.85;3.78;;;27.50;48.10;;;;;;5062855;28;20035;-62
2022/04/21 12:12:02;;;;;;;7.47;3.40;;;27.30;48.80;;;;;;5051283;28;20017;-62
2022/04/21 12:14:29;;;;;;;5.82;2.92;;;27.10;49.00;;;;;;5060202;28;20513;-63
2022/04/21 12:16:59;;;;;;;6.20;3.20;;;27.00;49.20;;;;;;5059949;28;20029;-63
2022/04/21 12:19:38;;;;;;;5.55;3.45;;;27.00;49.00;;;;;;5067923;28;20368;-62
2022/04/21 12:22:10;;;;;;;5.68;3.35;;;27.00;49.10;;;;;;5041647;28;20095;-62
2022/04/21 12:24:54;;;;;;;6.90;3.78;;;27.10;49.30;;;;;;5050133;28;20504;-64
2022/04/21 12:27:34;;;;;;;10.75;2.97;;;27.20;49.60;;;;;;5062052;28;20075;-64
2022/04/21 12:30:05;;;;;;;10.52;3.63;;;27.30;49.00;;;;;;5040341;28;20017;-65
2022/04/21 12:32:39;;;;;;;8.82;3.33;;;27.20;48.90;;;;;;5063069;28;20024;-65
2022/04/21 12:35:10;;;;;;;8.18;3.35;;;26.80;49.30;;;;;;5052938;28;20071;-64
2022/04/21 12:37:40;;;;;;;9.33;3.23;;;26.50;49.20;;;;;;5065875;28;20063;-64
2022/04/21 12:40:10;;;;;;;6.13;3.33;;;26.30;49.60;;;;;;5053600;28;20021;-67
2022/04/21 12:42:40;;;;;;;7.93;3.38;;;26.20;50.30;;;;;;5060158;28;20460;-63
2022/04/21 12:45:07;;;;;;;11.43;5.15;;;25.80;50.00;;;;;;5057359;28;20052;-64
2022/04/21 12:47:43;;;;;;;8.57;3.05;;;25.50;50.50;;;;;;5055974;28;20025;-66
2022/04/21 12:50:12;;;;;;;7.05;3.33;;;25.00;51.20;;;;;;5035494;28;20558;-65
2022/04/21 12:52:45;;;;;;;4.22;2.85;;;24.60;52.00;;;;;;5043598;28;20028;-64
2022/04/21 12:55:20;;;;;;;6.65;2.90;;;24.10;51.70;;;;;;5065778;28;20031;-64
2022/04/21 12:58:05;;;;;;;5.57;3.17;;;23.70;52.50;;;;;;5051865;28;20022;-63
2022/04/21 13:00:32;;;;;;;4.82;3.17;;;23.50;52.70;;;;;;5048819;28;20052;-63
2022/04/21 13:02:59;;;;;;;9.00;3.22;;;23.40;53.10;;;;;;5058652;28;20049;-64
2022/04/21 13:05:25;;;;;;;21.58;3.95;;;23.00;53.00;;;;;;5050524;28;20359;-63
2022/04/21 13:07:51;;;;;;;9.50;3.50;;;22.70;53.70;;;;;;5065375;28;20056;-65
2022/04/21 13:10:17;;;;;;;10.75;3.25;;;22.50;54.60;;;;;;5054627;28;20032;-68
2022/04/21 13:12:43;;;;;;;14.15;3.80;;;22.20;54.10;;;;;;5059125;28;20034;-63
2022/04/21 13:15:09;;;;;;;12.05;3.80;;;22.00;54.70;;;;;;5059748;28;20760;-64
2022/04/21 13:17:35;;;;;;;7.00;2.65;;;21.90;54.80;;;;;;5069435;28;20052;-64
2022/04/21 13:20:00;;;;;;;10.52;3.17;;;21.70;54.40;;;;;;5067508;28;20041;-64
2022/04/21 13:22:26;;;;;;;7.07;3.00;;;21.60;55.00;;;;;;5059138;28;20094;-64
2022/04/21 13:24:51;;;;;;;7.10;2.90;;;21.50;55.30;;;;;;5059939;28;20530;-63
2022/04/21 13:27:19;;;;;;;3.28;2.38;;;21.50;55.30;;;;;;5060948;28;20053;-63
2022/04/21 13:29:44;;;;;;;5.32;2.58;;;21.50;55.10;;;;;;5041078;28;20108;-63
2022/04/21 13:34:54;;;;;;;9.85;2.90;;;21.40;54.60;;;;;;5052540;28;20029;-63
2022/04/21 13:37:20;;;;;;;7.13;2.95;;;21.40;55.10;;;;;;5040036;28;20025;-63
2022/04/21 13:39:46;;;;;;;4.97;2.78;;;21.30;55.70;;;;;;5058178;28;20220;-63
2022/04/21 13:42:12;;;;;;;7.50;2.38;;;21.30;55.80;;;;;;5064093;28;20058;-63
2022/04/21 13:44:38;;;;;;;5.93;3.05;;;21.30;55.80;;;;;;5075137;28;20025;-64
2022/04/21 13:47:05;;;;;;;6.07;2.90;;;21.20;56.20;;;;;;5051452;28;20033;-63
2022/04/21 13:49:31;;;;;;;7.30;2.67;;;21.10;56.30;;;;;;5056367;28;20408;-63